createdAt,value
2022-09-26T00:01:36.241Z,12.90
2022-09-26T00:04:17.815Z,12.90
2022-09-26T00:06:47.404Z,12.90
2022-09-26T00:09:16.387Z,12.90
2022-09-26T00:11:44.977Z,12.90
2022-09-26T00:14:19.599Z,12.90
2022-09-26T00:16:47.561Z,12.90
2022-09-26T00:19:15.170Z,12.90
2022-09-26T00:21:42.600Z,12.90
2022-09-26T00:24:10.057Z,12.90
2022-09-26T00:26:37.612Z,12.90
2022-09-26T00:29:08.858Z,12.90
2022-09-26T00:31:44.506Z,12.90
2022-09-26T00:34:14.939Z,12.90
2022-09-26T00:36:41.881Z,12.80
2022-09-26T00:39:11.344Z,12.90
2022-09-26T00:41:39.360Z,12.80
2022-09-26T00:44:41.426Z,12.90
2022-09-26T00:47:26.335Z,12.90
2022-09-26T00:49:59.999Z,12.90
2022-09-26T00:52:48.870Z,12.80
2022-09-26T00:55:19.927Z,12.80
2022-09-26T00:57:53.917Z,12.80
2022-09-26T01:00:21.958Z,12.80
2022-09-26T01:02:49.316Z,12.80
2022-09-26T01:05:19.784Z,12.70
2022-09-26T01:07:48.478Z,12.70
2022-09-26T01:10:16.447Z,12.70
2022-09-26T01:15:37.378Z,12.70
2022-09-26T01:18:07.631Z,12.70
2022-09-26T01:20:53.365Z,12.70
2022-09-26T01:23:38.750Z,12.70
2022-09-26T01:26:49.432Z,12.70
2022-09-26T01:29:51.205Z,12.70
2022-09-26T01:32:52.605Z,12.70
2022-09-26T01:35:42.446Z,12.70
2022-09-26T01:38:35.830Z,12.70
2022-09-26T01:41:13.284Z,12.70
2022-09-26T01:44:25.904Z,12.60
2022-09-26T01:47:17.113Z,12.60
2022-09-26T01:49:44.799Z,12.60
2022-09-26T01:52:38.557Z,12.70
2022-09-26T01:55:21.643Z,12.60
2022-09-26T01:58:06.969Z,12.70
2022-09-26T02:00:36.890Z,12.70
2022-09-26T02:03:09.084Z,12.70
2022-09-26T02:05:43.363Z,12.60
2022-09-26T02:08:42.188Z,12.70
2022-09-26T02:11:14.530Z,12.70
2022-09-26T02:14:04.002Z,12.60
2022-09-26T02:16:49.752Z,12.70
2022-09-26T02:19:22.599Z,12.60
2022-09-26T02:21:49.928Z,12.70
2022-09-26T02:24:18.415Z,12.60
2022-09-26T02:26:50.086Z,12.60
2022-09-26T02:29:19.785Z,12.60
2022-09-26T02:31:54.924Z,12.60
2022-09-26T02:34:23.224Z,12.60
2022-09-26T02:36:51.336Z,12.50
2022-09-26T02:39:19.367Z,12.50
2022-09-26T02:42:30.533Z,12.40
2022-09-26T02:45:22.067Z,12.40
2022-09-26T02:48:00.775Z,12.40
2022-09-26T02:50:54.040Z,12.30
2022-09-26T02:53:34.096Z,12.30
2022-09-26T02:56:17.633Z,12.30
2022-09-26T02:58:59.808Z,12.20
2022-09-26T03:01:40.795Z,12.20
2022-09-26T03:04:21.365Z,12.20
2022-09-26T03:06:52.622Z,12.10
2022-09-26T03:09:23.662Z,12.10
2022-09-26T03:11:53.375Z,12.00
2022-09-26T03:14:23.700Z,11.90
2022-09-26T03:16:52.059Z,11.90
2022-09-26T03:19:38.608Z,11.80
2022-09-26T03:22:07.391Z,11.80
2022-09-26T03:24:36.779Z,11.70
2022-09-26T03:27:05.622Z,11.70
2022-09-26T03:29:35.922Z,11.70
2022-09-26T03:32:05.911Z,11.60
2022-09-26T03:34:33.894Z,11.60
2022-09-26T03:37:02.689Z,11.50
2022-09-26T03:39:30.030Z,11.40
2022-09-26T03:42:02.759Z,11.30
2022-09-26T03:44:31.572Z,11.30
2022-09-26T03:47:15.413Z,11.30
2022-09-26T03:49:45.776Z,11.20
2022-09-26T03:52:13.444Z,11.10
2022-09-26T03:54:42.085Z,11.10
2022-09-26T03:57:13.213Z,11.10
2022-09-26T03:59:47.091Z,11.00
2022-09-26T04:02:15.062Z,11.00
2022-09-26T04:04:46.101Z,10.90
2022-09-26T04:07:15.289Z,10.80
2022-09-26T04:09:42.433Z,10.80
2022-09-26T04:12:09.793Z,10.80
2022-09-26T04:14:43.990Z,10.70
2022-09-26T04:17:11.604Z,10.70
2022-09-26T04:19:42.901Z,10.70
2022-09-26T04:22:10.618Z,10.60
2022-09-26T04:24:38.323Z,10.70
2022-09-26T04:27:07.644Z,10.60
2022-09-26T04:29:35.930Z,10.60
2022-09-26T04:32:17.994Z,10.50
2022-09-26T04:35:17.301Z,10.40
2022-09-26T04:37:44.590Z,10.40
2022-09-26T04:40:11.571Z,10.40
2022-09-26T04:42:48.833Z,10.40
2022-09-26T04:45:15.784Z,10.30
2022-09-26T04:47:43.183Z,10.30
2022-09-26T04:50:42.745Z,10.30
2022-09-26T04:53:12.316Z,10.30
2022-09-26T04:55:48.437Z,10.30
2022-09-26T04:58:17.013Z,10.30
2022-09-26T05:00:48.494Z,10.20
2022-09-26T05:03:21.652Z,10.20
2022-09-26T05:05:50.613Z,10.20
2022-09-26T05:08:17.839Z,10.10
2022-09-26T05:10:44.740Z,10.10
2022-09-26T05:13:12.194Z,10.10
2022-09-26T05:15:40.063Z,10.10
2022-09-26T05:18:09.179Z,10.00
2022-09-26T05:20:37.663Z,10.00
2022-09-26T05:23:07.969Z,10.00
2022-09-26T05:25:59.141Z,9.90
2022-09-26T05:28:27.988Z,9.90
2022-09-26T05:30:54.895Z,10.00
2022-09-26T05:33:22.407Z,9.90
2022-09-26T05:35:53.429Z,9.80
2022-09-26T05:38:20.698Z,9.80
2022-09-26T05:40:57.191Z,9.80
2022-09-26T05:43:30.986Z,9.80
2022-09-26T05:46:04.549Z,9.70
2022-09-26T05:48:38.502Z,9.70
2022-09-26T05:51:14.040Z,9.60
2022-09-26T05:53:48.686Z,9.70
2022-09-26T05:56:20.038Z,9.60
2022-09-26T05:59:02.603Z,9.60
2022-09-26T06:01:59.452Z,9.60
2022-09-26T06:04:49.480Z,9.60
2022-09-26T06:07:43.425Z,9.50
2022-09-26T06:10:16.057Z,9.50
2022-09-26T06:12:53.203Z,9.50
2022-09-26T06:15:20.966Z,9.50
2022-09-26T06:17:48.987Z,9.50
2022-09-26T06:20:17.333Z,9.50
2022-09-26T06:22:44.629Z,9.40
2022-09-26T06:25:12.952Z,9.40
2022-09-26T06:27:40.635Z,9.40
2022-09-26T06:30:10.481Z,9.40
2022-09-26T06:32:39.450Z,9.40
2022-09-26T06:35:22.130Z,9.40
2022-09-26T06:38:10.794Z,9.30
2022-09-26T06:40:37.960Z,9.40
2022-09-26T06:43:06.149Z,9.30
2022-09-26T06:46:09.615Z,9.30
2022-09-26T06:48:46.904Z,9.30
2022-09-26T06:51:28.197Z,9.40
2022-09-26T06:53:55.233Z,9.40
2022-09-26T06:56:27.070Z,9.40
2022-09-26T06:58:53.966Z,9.40
2022-09-26T07:01:29.190Z,9.50
2022-09-26T07:04:17.334Z,9.60
2022-09-26T07:06:52.276Z,9.70
2022-09-26T07:09:21.870Z,9.80
2022-09-26T07:12:15.345Z,9.90
2022-09-26T07:14:45.755Z,10.00
2022-09-26T07:17:21.517Z,10.10
2022-09-26T07:20:14.822Z,10.30
2022-09-26T07:22:55.347Z,10.40
2022-09-26T07:25:22.519Z,10.60
2022-09-26T07:27:52.229Z,10.70
2022-09-26T07:30:23.663Z,10.80
2022-09-26T07:33:03.233Z,10.90
2022-09-26T07:35:44.472Z,11.10
2022-09-26T07:38:13.298Z,11.20
2022-09-26T07:40:44.327Z,11.30
2022-09-26T07:43:22.350Z,11.40
2022-09-26T07:46:13.290Z,11.50
2022-09-26T07:49:03.938Z,11.70
2022-09-26T07:51:50.142Z,11.80
2022-09-26T07:54:21.389Z,11.80
2022-09-26T07:56:51.424Z,11.90
2022-09-26T07:59:36.289Z,11.90
2022-09-26T08:02:29.684Z,12.00
2022-09-26T08:05:00.877Z,12.10
2022-09-26T08:07:30.627Z,12.10
2022-09-26T08:10:08.395Z,12.20
2022-09-26T08:12:54.322Z,12.20
2022-09-26T08:15:39.111Z,12.30
2022-09-26T08:18:09.610Z,12.30
2022-09-26T08:20:37.050Z,12.40
2022-09-26T08:23:04.023Z,12.40
2022-09-26T08:25:38.362Z,12.50
2022-09-26T08:28:20.821Z,12.50
2022-09-26T08:30:48.404Z,12.50
2022-09-26T08:33:19.073Z,12.60
2022-09-26T08:35:48.930Z,12.70
2022-09-26T08:38:21.725Z,12.70
2022-09-26T08:41:33.210Z,12.80
2022-09-26T08:44:56.015Z,12.90
2022-09-26T08:47:53.357Z,13.00
2022-09-26T08:50:48.676Z,13.10
2022-09-26T08:53:21.075Z,13.10
2022-09-26T08:55:57.384Z,13.20
2022-09-26T08:58:32.111Z,13.20
2022-09-26T09:01:13.001Z,13.30
2022-09-26T09:04:12.160Z,13.30
2022-09-26T09:06:39.583Z,13.40
2022-09-26T09:09:07.709Z,13.40
2022-09-26T09:12:23.849Z,13.40
2022-09-26T09:15:29.075Z,13.40
2022-09-26T09:18:55.696Z,13.40
2022-09-26T09:22:10.075Z,13.50
2022-09-26T09:25:11.015Z,13.50
2022-09-26T09:28:07.165Z,13.40
2022-09-26T09:30:42.799Z,13.50
2022-09-26T09:33:51.205Z,13.40
2022-09-26T09:36:44.393Z,13.40
2022-09-26T09:39:45.926Z,13.50
2022-09-26T09:42:47.063Z,13.60
2022-09-26T09:45:25.609Z,13.60
2022-09-26T09:47:53.065Z,13.70
2022-09-26T09:50:40.995Z,13.70
2022-09-26T09:53:32.942Z,13.70
2022-09-26T09:56:25.783Z,13.70
2022-09-26T09:59:08.806Z,13.70
2022-09-26T10:02:11.588Z,13.70
2022-09-26T10:04:47.178Z,13.80
2022-09-26T10:07:16.438Z,13.80
2022-09-26T10:09:54.663Z,13.80
2022-09-26T10:12:44.770Z,13.80
2022-09-26T10:15:32.526Z,13.90
2022-09-26T10:18:25.813Z,13.90
2022-09-26T10:21:08.966Z,14.00
2022-09-26T10:23:40.786Z,14.40
2022-09-26T10:26:14.693Z,14.70
2022-09-26T10:28:53.383Z,14.80
2022-09-26T10:31:29.697Z,14.90
2022-09-26T10:34:30.212Z,14.80
2022-09-26T10:37:18.775Z,14.80
2022-09-26T10:40:12.621Z,14.70
2022-09-26T10:42:43.505Z,14.70
2022-09-26T10:45:18.116Z,14.60
2022-09-26T10:48:07.187Z,14.80
2022-09-26T10:51:01.028Z,15.00
2022-09-26T10:53:41.109Z,14.90
2022-09-26T10:56:14.914Z,14.90
2022-09-26T10:58:47.146Z,14.90
2022-09-26T11:01:30.191Z,14.90
2022-09-26T11:04:14.673Z,14.80
2022-09-26T11:32:14.210Z,14.80
2022-09-26T11:35:03.792Z,14.80
2022-09-26T11:37:48.053Z,14.80
2022-09-26T11:40:56.301Z,14.70
2022-09-26T11:43:37.631Z,14.80
2022-09-26T11:47:00.242Z,14.80
2022-09-26T11:49:56.067Z,14.90
2022-09-26T11:53:26.869Z,14.90
2022-09-26T11:56:10.823Z,15.00
2022-09-26T11:59:28.359Z,15.00
2022-09-26T12:02:33.520Z,15.10
2022-09-26T12:05:27.360Z,15.10
2022-09-26T12:08:45.298Z,15.20
2022-09-26T12:11:43.818Z,15.20
2022-09-26T12:14:39.828Z,15.20
2022-09-26T12:17:36.388Z,15.30
2022-09-26T12:20:41.914Z,15.30
2022-09-26T12:23:25.997Z,15.20
2022-09-26T12:26:09.231Z,15.20
2022-09-26T12:28:46.356Z,15.30
2022-09-26T12:31:20.903Z,15.30
2022-09-26T12:34:07.928Z,15.40
2022-09-26T12:36:58.722Z,15.30
2022-09-26T12:39:57.538Z,15.30
2022-09-26T12:43:16.821Z,15.30
2022-09-26T12:46:25.394Z,15.40
2022-09-26T12:49:13.438Z,15.40
2022-09-26T12:51:47.428Z,15.40
2022-09-26T12:54:17.542Z,15.40
2022-09-26T12:57:05.536Z,15.40
2022-09-26T13:00:03.216Z,15.30
2022-09-26T13:02:58.665Z,15.20
2022-09-26T13:05:47.569Z,15.10
2022-09-26T13:08:21.196Z,15.10
2022-09-26T13:10:57.161Z,15.00
2022-09-26T13:13:46.422Z,15.00
2022-09-26T13:16:39.779Z,14.90
2022-09-26T13:19:34.624Z,14.90
2022-09-26T13:22:16.002Z,14.90
2022-09-26T13:24:58.668Z,14.80
2022-09-26T13:27:36.321Z,14.80
2022-09-26T13:30:25.388Z,14.90
2022-09-26T13:33:07.328Z,14.90
2022-09-26T13:35:38.098Z,14.90
2022-09-26T13:38:34.456Z,15.00
2022-09-26T13:44:49.860Z,15.10
2022-09-26T13:47:48.014Z,15.20
2022-09-26T13:50:45.690Z,15.30
2022-09-26T13:53:35.045Z,15.20
2022-09-26T13:56:36.474Z,15.20
2022-09-26T13:59:14.696Z,15.30
2022-09-26T14:02:22.323Z,15.20
2022-09-26T14:04:52.207Z,15.30
2022-09-26T14:08:03.197Z,15.20
2022-09-26T14:10:36.893Z,15.20
2022-09-26T14:13:36.617Z,15.30
2022-09-26T14:16:25.860Z,15.30
2022-09-26T14:19:14.473Z,15.20
2022-09-26T14:22:26.794Z,15.20
2022-09-26T14:24:56.770Z,15.30
2022-09-26T14:27:40.058Z,14.90
2022-09-26T14:30:13.428Z,14.70
2022-09-26T14:32:45.212Z,14.70
2022-09-26T14:35:20.139Z,14.60
2022-09-26T14:37:51.077Z,14.70
2022-09-26T14:40:34.401Z,14.70
2022-09-26T14:43:15.569Z,14.80
2022-09-26T14:46:01.220Z,14.90
2022-09-26T14:48:34.426Z,14.90
2022-09-26T14:51:04.273Z,15.00
2022-09-26T14:53:50.334Z,14.90
2022-09-26T14:56:35.715Z,14.70
2022-09-26T14:59:27.877Z,14.50
2022-09-26T15:02:13.597Z,14.30
2022-09-26T15:05:11.847Z,14.40
2022-09-26T15:07:43.806Z,14.20
2022-09-26T15:10:14.420Z,14.30
2022-09-26T15:13:08.956Z,14.20
2022-09-26T15:15:39.194Z,14.30
2022-09-26T15:18:43.624Z,14.30
2022-09-26T15:21:34.560Z,14.30
2022-09-26T15:24:05.624Z,14.50
2022-09-26T15:26:37.782Z,14.30
2022-09-26T15:29:12.505Z,14.40
2022-09-26T15:31:44.903Z,14.20
2022-09-26T15:34:17.925Z,14.20
2022-09-26T15:39:51.816Z,14.10
2022-09-26T15:48:41.395Z,14.00
2022-09-26T15:51:21.176Z,14.00
2022-09-26T15:54:04.024Z,14.10
2022-09-26T15:56:51.134Z,14.00
2022-09-26T15:59:25.065Z,14.00
2022-09-26T16:01:53.068Z,13.90
2022-09-26T16:04:23.324Z,14.00
2022-09-26T16:07:03.581Z,14.10
2022-09-26T16:09:37.248Z,14.10
2022-09-26T16:12:16.469Z,14.10
2022-09-26T16:14:50.961Z,14.10
2022-09-26T16:17:18.921Z,14.10
2022-09-26T16:20:11.862Z,14.00
2022-09-26T16:22:53.605Z,14.00
2022-09-26T16:25:34.662Z,14.00
2022-09-26T16:28:22.101Z,13.90
2022-09-26T16:30:59.012Z,13.90
2022-09-26T16:33:35.205Z,13.80
2022-09-26T16:36:21.775Z,13.70
2022-09-26T16:39:03.908Z,13.60
2022-09-26T16:42:00.037Z,13.60
2022-09-26T16:44:37.441Z,13.60
2022-09-26T16:47:26.391Z,13.40
2022-09-26T16:49:53.673Z,13.40
2022-09-26T16:52:37.193Z,13.40
2022-09-26T16:55:06.329Z,13.30
2022-09-26T16:57:37.457Z,13.30
2022-09-26T17:00:33.253Z,13.40
2022-09-26T17:03:00.197Z,13.40
2022-09-26T17:05:27.043Z,13.30
2022-09-26T17:07:54.189Z,13.20
2022-09-26T17:10:24.530Z,13.20
2022-09-26T17:12:53.375Z,13.20
2022-09-26T17:15:28.153Z,13.20
2022-09-26T17:17:57.349Z,13.20
2022-09-26T17:20:26.272Z,13.20
2022-09-26T17:22:55.993Z,13.10
2022-09-26T17:25:25.398Z,13.10
2022-09-26T17:28:02.757Z,13.10
2022-09-26T17:30:29.926Z,13.10
2022-09-26T17:32:59.396Z,13.00
2022-09-26T17:35:33.009Z,13.00
2022-09-26T17:38:01.369Z,12.90
2022-09-26T17:40:31.719Z,12.90
2022-09-26T17:43:01.392Z,12.80
2022-09-26T17:45:34.384Z,12.80
2022-09-26T17:48:04.517Z,12.70
2022-09-26T17:50:33.281Z,12.70
2022-09-26T17:53:02.321Z,12.70
2022-09-26T17:55:31.515Z,12.70
2022-09-26T17:58:00.172Z,12.70
2022-09-26T18:00:32.295Z,12.70
2022-09-26T18:03:03.991Z,12.80
2022-09-26T18:05:34.573Z,12.70
2022-09-26T18:08:08.047Z,12.80
2022-09-26T18:10:38.139Z,12.80
2022-09-26T18:13:12.991Z,12.80
2022-09-26T18:15:41.214Z,12.80
2022-09-26T18:18:17.750Z,12.80
2022-09-26T18:20:45.661Z,12.80
2022-09-26T18:23:22.969Z,12.80
2022-09-26T18:25:51.608Z,12.60
2022-09-26T18:28:21.474Z,12.60
2022-09-26T18:30:55.593Z,12.60
2022-09-26T18:33:27.953Z,12.60
2022-09-26T18:35:55.460Z,12.60
2022-09-26T18:38:22.473Z,12.60
2022-09-26T18:41:00.416Z,12.60
2022-09-26T18:43:39.017Z,12.50
2022-09-26T18:46:12.130Z,12.50
2022-09-26T18:48:41.572Z,12.50
2022-09-26T18:51:10.224Z,12.50
2022-09-26T18:53:37.894Z,12.40
2022-09-26T18:56:28.450Z,12.40
2022-09-26T18:58:56.863Z,12.40
2022-09-26T19:01:26.722Z,12.30
2022-09-26T19:03:54.999Z,12.30
2022-09-26T19:06:34.909Z,12.30
2022-09-26T19:09:07.826Z,12.20
2022-09-26T19:11:35.286Z,12.20
2022-09-26T19:14:15.028Z,12.20
2022-09-26T19:16:46.462Z,12.10
2022-09-26T19:19:13.873Z,12.00
2022-09-26T19:21:45.968Z,12.10
2022-09-26T19:24:22.835Z,12.00
2022-09-26T19:26:57.457Z,11.90
2022-09-26T19:29:34.255Z,11.80
2022-09-26T19:32:02.308Z,11.80
2022-09-26T19:34:32.712Z,11.80
2022-09-26T19:37:01.476Z,11.70
2022-09-26T19:39:29.647Z,11.70
2022-09-26T19:41:57.090Z,11.60
2022-09-26T19:44:24.502Z,11.50
2022-09-26T19:46:52.040Z,11.50
2022-09-26T19:49:19.057Z,11.40
2022-09-26T19:51:47.232Z,11.40
2022-09-26T19:54:18.090Z,11.30
2022-09-26T19:56:46.764Z,11.30
2022-09-26T19:59:14.719Z,11.20
2022-09-26T20:01:43.046Z,11.20
2022-09-26T20:04:16.615Z,11.10
2022-09-26T20:06:44.676Z,11.10
2022-09-26T20:09:17.763Z,11.10
2022-09-26T20:11:45.287Z,11.10
2022-09-26T20:14:24.738Z,10.90
2022-09-26T20:16:54.365Z,10.90
2022-09-26T20:19:35.351Z,10.90
2022-09-26T20:22:04.153Z,10.90
2022-09-26T20:24:33.713Z,10.80
2022-09-26T20:27:03.528Z,10.80
2022-09-26T20:29:50.517Z,10.80
2022-09-26T20:32:17.709Z,10.80
2022-09-26T20:34:45.108Z,10.80
2022-09-26T20:37:14.179Z,10.80
2022-09-26T20:39:42.098Z,10.70
2022-09-26T20:42:14.999Z,10.80
2022-09-26T20:44:42.765Z,10.90
2022-09-26T20:47:11.013Z,10.80
2022-09-26T20:49:46.053Z,10.90
2022-09-26T20:52:22.180Z,10.90
2022-09-26T20:54:49.072Z,11.00
2022-09-26T20:57:17.584Z,11.10
2022-09-26T20:59:44.421Z,11.10
2022-09-26T21:02:26.423Z,11.20
2022-09-26T21:04:54.068Z,11.20
2022-09-26T21:07:21.821Z,11.20
2022-09-26T21:09:49.869Z,11.20
2022-09-26T21:12:17.866Z,11.30
2022-09-26T21:14:45.388Z,11.30
2022-09-26T21:17:26.662Z,11.40
2022-09-26T21:19:54.896Z,11.40
2022-09-26T21:22:41.804Z,11.40
2022-09-26T21:25:17.777Z,11.50
2022-09-26T21:27:47.324Z,11.50
2022-09-26T21:30:16.547Z,11.50
2022-09-26T21:32:46.630Z,11.40
2022-09-26T21:35:16.644Z,11.40
2022-09-26T21:37:56.065Z,11.40
2022-09-26T21:40:26.244Z,11.40
2022-09-26T21:43:01.301Z,11.40
2022-09-26T21:45:28.204Z,11.50
2022-09-26T21:47:57.311Z,11.40
2022-09-26T21:50:27.436Z,11.40
2022-09-26T21:52:59.306Z,11.40
2022-09-26T21:55:33.948Z,11.50
2022-09-26T21:58:05.907Z,11.40
2022-09-26T22:00:32.752Z,11.40
2022-09-26T22:03:01.161Z,11.50
2022-09-26T22:05:27.952Z,11.50
2022-09-26T22:07:56.248Z,11.60
2022-09-26T22:10:23.399Z,11.60
2022-09-26T22:12:52.396Z,11.60
2022-09-26T22:15:19.953Z,11.70
2022-09-26T22:17:47.310Z,11.70
2022-09-26T22:20:14.193Z,11.60
2022-09-26T22:22:41.902Z,11.60
2022-09-26T22:25:09.802Z,11.70
2022-09-26T22:27:37.039Z,11.70
2022-09-26T22:30:05.100Z,11.80
2022-09-26T22:32:32.564Z,11.70
2022-09-26T22:34:59.377Z,11.70
2022-09-26T22:37:26.399Z,11.70
2022-09-26T22:39:53.680Z,11.70
2022-09-26T22:42:20.473Z,11.70
2022-09-26T22:44:47.909Z,11.80
2022-09-26T22:47:14.896Z,11.70
2022-09-26T22:49:42.042Z,11.80
2022-09-26T22:52:08.843Z,11.80
2022-09-26T22:54:36.294Z,11.80
2022-09-26T22:57:03.148Z,11.80
2022-09-26T22:59:30.555Z,11.70
2022-09-26T23:01:57.496Z,11.80
2022-09-26T23:04:44.971Z,11.70
2022-09-26T23:07:12.252Z,11.70
2022-09-26T23:09:39.030Z,11.80
2022-09-26T23:12:07.662Z,11.70
2022-09-26T23:14:35.230Z,11.80
2022-09-26T23:17:02.684Z,11.80
2022-09-26T23:19:30.029Z,11.80
2022-09-26T23:21:58.093Z,11.80
2022-09-26T23:24:25.365Z,11.80
2022-09-26T23:26:52.225Z,11.80
2022-09-26T23:29:19.567Z,11.80
2022-09-26T23:31:46.315Z,11.80
2022-09-26T23:34:13.485Z,11.80
2022-09-26T23:36:40.402Z,11.80
2022-09-26T23:39:07.967Z,11.80
2022-09-26T23:41:34.882Z,11.80
2022-09-26T23:44:02.948Z,11.60
2022-09-26T23:46:29.846Z,11.60
2022-09-26T23:48:56.961Z,11.60
2022-09-26T23:51:24.247Z,11.60
2022-09-26T23:53:51.225Z,11.60
2022-09-26T23:56:18.024Z,11.60
2022-09-26T23:58:44.972Z,11.60
